Baltimore, Maryland
Traffic Map
Current Weather Conditions
Baltimore, Maryland
Scattered Clouds
Scattered Clouds
87°
Feels Like: 87°
Wind Chill: 87° Ceiling: Unl
Heat Index: 87° Visibility: 10mi
Dew Point: 59° Wind: 7mph
Humidity: 39% Direction: ° ()
Pressure: 29.94in Gusts: 0mph
Raw Report DataKBWI 261854Z VRB06KT 10SM SCT050 31/15 A2994 RMK AO2 SLP135 T03060150
Traffic Incident Summary
Active as of:
Severity:
Category:
InformationThere was an issue retrieving the traffic information for this location. Please try a different location or try again shortly.
Advertisements
Track Severe Weather on mobile